sensor_id;sensor_type;location;lat;lon;timestamp;P1;durP1;ratioP1;P2;durP2;ratioP2
6249;SDS011;3158;52.148;11.568;2023-02-22T00:03:28;15.80;;;7.78;;
6249;SDS011;3158;52.148;11.568;2023-02-22T00:08:32;14.55;;;7.50;;
6249;SDS011;3158;52.148;11.568;2023-02-22T00:13:35;12.20;;;7.05;;
6249;SDS011;3158;52.148;11.568;2023-02-22T00:18:36;11.65;;;6.80;;
6249;SDS011;3158;52.148;11.568;2023-02-22T00:23:39;13.52;;;7.40;;
6249;SDS011;3158;52.148;11.568;2023-02-22T00:28:49;11.32;;;6.15;;
6249;SDS011;3158;52.148;11.568;2023-02-22T00:33:50;14.57;;;7.35;;
6249;SDS011;3158;52.148;11.568;2023-02-22T00:38:51;14.13;;;7.68;;
6249;SDS011;3158;52.148;11.568;2023-02-22T00:43:52;17.45;;;7.60;;
6249;SDS011;3158;52.148;11.568;2023-02-22T00:48:54;16.13;;;7.55;;
6249;SDS011;3158;52.148;11.568;2023-02-22T00:53:55;17.08;;;7.57;;
6249;SDS011;3158;52.148;11.568;2023-02-22T00:58:56;17.95;;;8.48;;
6249;SDS011;3158;52.148;11.568;2023-02-22T01:03:57;14.40;;;7.63;;
6249;SDS011;3158;52.148;11.568;2023-02-22T01:08:58;18.88;;;8.70;;
6249;SDS011;3158;52.148;11.568;2023-02-22T01:14:01;14.90;;;7.57;;
6249;SDS011;3158;52.148;11.568;2023-02-22T01:19:02;15.30;;;7.80;;
6249;SDS011;3158;52.148;11.568;2023-02-22T01:24:05;20.00;;;8.52;;
6249;SDS011;3158;52.148;11.568;2023-02-22T01:29:06;18.13;;;8.02;;
6249;SDS011;3158;52.148;11.568;2023-02-22T01:34:07;18.63;;;8.07;;
6249;SDS011;3158;52.148;11.568;2023-02-22T01:39:09;17.95;;;7.65;;
6249;SDS011;3158;52.148;11.568;2023-02-22T01:44:30;15.95;;;7.25;;
6249;SDS011;3158;52.148;11.568;2023-02-22T01:49:34;14.77;;;7.43;;
6249;SDS011;3158;52.148;11.568;2023-02-22T01:54:38;15.38;;;6.75;;
6249;SDS011;3158;52.148;11.568;2023-02-22T01:59:41;16.73;;;7.22;;
6249;SDS011;3158;52.148;11.568;2023-02-22T02:04:43;17.90;;;7.70;;
6249;SDS011;3158;52.148;11.568;2023-02-22T02:09:58;18.08;;;7.07;;
6249;SDS011;3158;52.148;11.568;2023-02-22T02:15:16;16.10;;;6.43;;
6249;SDS011;3158;52.148;11.568;2023-02-22T02:36:09;18.30;;;7.57;;
6249;SDS011;3158;52.148;11.568;2023-02-22T02:41:55;14.00;;;6.93;;
6249;SDS011;3158;52.148;11.568;2023-02-22T02:46:39;21.77;;;7.93;;
6249;SDS011;3158;52.148;11.568;2023-02-22T02:51:48;17.17;;;8.45;;
6249;SDS011;3158;52.148;11.568;2023-02-22T02:56:50;18.63;;;7.82;;
6249;SDS011;3158;52.148;11.568;2023-02-22T03:01:56;18.75;;;7.78;;
6249;SDS011;3158;52.148;11.568;2023-02-22T03:07:08;16.38;;;8.40;;
6249;SDS011;3158;52.148;11.568;2023-02-22T03:12:21;15.00;;;6.95;;
6249;SDS011;3158;52.148;11.568;2023-02-22T03:17:37;14.55;;;7.03;;
6249;SDS011;3158;52.148;11.568;2023-02-22T03:22:51;18.48;;;7.97;;
6249;SDS011;3158;52.148;11.568;2023-02-22T03:27:56;14.73;;;7.00;;
6249;SDS011;3158;52.148;11.568;2023-02-22T03:33:07;13.82;;;6.38;;
6249;SDS011;3158;52.148;11.568;2023-02-22T03:38:10;14.45;;;6.57;;
6249;SDS011;3158;52.148;11.568;2023-02-22T03:43:14;15.88;;;7.28;;
6249;SDS011;3158;52.148;11.568;2023-02-22T03:48:19;18.02;;;8.02;;
6249;SDS011;3158;52.148;11.568;2023-02-22T03:53:21;18.45;;;8.10;;
6249;SDS011;3158;52.148;11.568;2023-02-22T03:58:24;21.10;;;8.02;;
6249;SDS011;3158;52.148;11.568;2023-02-22T04:03:26;21.13;;;8.63;;
6249;SDS011;3158;52.148;11.568;2023-02-22T04:08:27;17.13;;;8.25;;
6249;SDS011;3158;52.148;11.568;2023-02-22T04:13:29;26.10;;;8.93;;
6249;SDS011;3158;52.148;11.568;2023-02-22T04:18:32;23.52;;;8.98;;
6249;SDS011;3158;52.148;11.568;2023-02-22T04:23:34;16.70;;;7.93;;
6249;SDS011;3158;52.148;11.568;2023-02-22T04:28:36;27.60;;;11.25;;
6249;SDS011;3158;52.148;11.568;2023-02-22T04:33:43;20.55;;;8.07;;
6249;SDS011;3158;52.148;11.568;2023-02-22T04:38:47;18.70;;;8.02;;
6249;SDS011;3158;52.148;11.568;2023-02-22T04:43:48;20.45;;;8.70;;
6249;SDS011;3158;52.148;11.568;2023-02-22T04:48:53;24.30;;;9.65;;
6249;SDS011;3158;52.148;11.568;2023-02-22T04:53:58;18.92;;;8.27;;
6249;SDS011;3158;52.148;11.568;2023-02-22T04:58:59;23.20;;;9.95;;
6249;SDS011;3158;52.148;11.568;2023-02-22T05:04:01;32.08;;;10.32;;
6249;SDS011;3158;52.148;11.568;2023-02-22T05:09:02;23.48;;;9.63;;
6249;SDS011;3158;52.148;11.568;2023-02-22T05:14:03;25.75;;;9.57;;
6249;SDS011;3158;52.148;11.568;2023-02-22T05:19:04;21.92;;;7.68;;
6249;SDS011;3158;52.148;11.568;2023-02-22T05:24:06;22.38;;;9.60;;
6249;SDS011;3158;52.148;11.568;2023-02-22T05:29:07;28.42;;;9.88;;
6249;SDS011;3158;52.148;11.568;2023-02-22T05:34:08;24.92;;;8.75;;
6249;SDS011;3158;52.148;11.568;2023-02-22T05:39:09;24.33;;;9.05;;
6249;SDS011;3158;52.148;11.568;2023-02-22T05:44:11;25.05;;;9.40;;
6249;SDS011;3158;52.148;11.568;2023-02-22T05:49:12;22.48;;;9.73;;
6249;SDS011;3158;52.148;11.568;2023-02-22T05:54:13;22.63;;;8.70;;
6249;SDS011;3158;52.148;11.568;2023-02-22T05:59:14;23.50;;;9.10;;
6249;SDS011;3158;52.148;11.568;2023-02-22T06:04:15;16.52;;;7.70;;
6249;SDS011;3158;52.148;11.568;2023-02-22T06:09:17;19.63;;;8.30;;
6249;SDS011;3158;52.148;11.568;2023-02-22T06:14:18;24.52;;;9.45;;
6249;SDS011;3158;52.148;11.568;2023-02-22T06:19:19;23.05;;;9.02;;
6249;SDS011;3158;52.148;11.568;2023-02-22T06:24:20;22.20;;;9.43;;
6249;SDS011;3158;52.148;11.568;2023-02-22T06:29:22;24.88;;;9.43;;
6249;SDS011;3158;52.148;11.568;2023-02-22T06:34:24;20.63;;;8.52;;
6249;SDS011;3158;52.148;11.568;2023-02-22T06:39:25;25.27;;;10.23;;
6249;SDS011;3158;52.148;11.568;2023-02-22T06:44:26;23.50;;;10.00;;
6249;SDS011;3158;52.148;11.568;2023-02-22T06:49:27;28.92;;;9.40;;
6249;SDS011;3158;52.148;11.568;2023-02-22T06:54:28;21.88;;;9.85;;
6249;SDS011;3158;52.148;11.568;2023-02-22T06:59:29;21.55;;;8.57;;
6249;SDS011;3158;52.148;11.568;2023-02-22T07:04:31;29.88;;;11.07;;
6249;SDS011;3158;52.148;11.568;2023-02-22T07:09:32;26.67;;;9.23;;
6249;SDS011;3158;52.148;11.568;2023-02-22T07:14:33;22.52;;;10.13;;
6249;SDS011;3158;52.148;11.568;2023-02-22T07:19:34;22.55;;;8.70;;
6249;SDS011;3158;52.148;11.568;2023-02-22T07:24:35;25.08;;;9.80;;
6249;SDS011;3158;52.148;11.568;2023-02-22T07:29:36;25.75;;;9.45;;
6249;SDS011;3158;52.148;11.568;2023-02-22T07:34:37;27.73;;;9.57;;
6249;SDS011;3158;52.148;11.568;2023-02-22T07:39:38;30.65;;;10.65;;
6249;SDS011;3158;52.148;11.568;2023-02-22T07:44:42;24.88;;;10.05;;
6249;SDS011;3158;52.148;11.568;2023-02-22T07:49:43;21.20;;;9.90;;
6249;SDS011;3158;52.148;11.568;2023-02-22T07:54:45;23.70;;;9.82;;
6249;SDS011;3158;52.148;11.568;2023-02-22T07:59:46;24.83;;;10.00;;
6249;SDS011;3158;52.148;11.568;2023-02-22T08:04:48;27.75;;;10.10;;
6249;SDS011;3158;52.148;11.568;2023-02-22T08:09:49;20.80;;;9.32;;
6249;SDS011;3158;52.148;11.568;2023-02-22T08:14:50;22.27;;;9.25;;
6249;SDS011;3158;52.148;11.568;2023-02-22T08:19:51;23.38;;;9.05;;
6249;SDS011;3158;52.148;11.568;2023-02-22T08:24:52;19.63;;;8.85;;
6249;SDS011;3158;52.148;11.568;2023-02-22T08:29:54;21.45;;;8.57;;
6249;SDS011;3158;52.148;11.568;2023-02-22T08:34:55;21.92;;;8.50;;
6249;SDS011;3158;52.148;11.568;2023-02-22T08:39:56;26.50;;;9.55;;
6249;SDS011;3158;52.148;11.568;2023-02-22T08:44:57;26.48;;;9.70;;
6249;SDS011;3158;52.148;11.568;2023-02-22T08:49:59;24.58;;;10.25;;
6249;SDS011;3158;52.148;11.568;2023-02-22T08:55:00;24.70;;;9.65;;
6249;SDS011;3158;52.148;11.568;2023-02-22T09:00:02;24.17;;;9.95;;
6249;SDS011;3158;52.148;11.568;2023-02-22T09:05:03;21.73;;;7.88;;
6249;SDS011;3158;52.148;11.568;2023-02-22T09:10:06;19.60;;;9.20;;
6249;SDS011;3158;52.148;11.568;2023-02-22T09:15:07;23.60;;;9.13;;
6249;SDS011;3158;52.148;11.568;2023-02-22T09:20:08;23.13;;;10.00;;
6249;SDS011;3158;52.148;11.568;2023-02-22T09:25:11;28.55;;;10.48;;
6249;SDS011;3158;52.148;11.568;2023-02-22T09:30:16;23.85;;;10.52;;
6249;SDS011;3158;52.148;11.568;2023-02-22T09:35:18;20.52;;;9.32;;
6249;SDS011;3158;52.148;11.568;2023-02-22T09:40:19;19.08;;;7.18;;
6249;SDS011;3158;52.148;11.568;2023-02-22T09:45:29;27.30;;;8.50;;
6249;SDS011;3158;52.148;11.568;2023-02-22T09:50:41;21.63;;;9.10;;
6249;SDS011;3158;52.148;11.568;2023-02-22T09:55:46;19.60;;;7.65;;
6249;SDS011;3158;52.148;11.568;2023-02-22T10:00:50;21.42;;;9.38;;
6249;SDS011;3158;52.148;11.568;2023-02-22T10:05:54;18.98;;;8.45;;
6249;SDS011;3158;52.148;11.568;2023-02-22T10:21:32;20.10;;;8.65;;
6249;SDS011;3158;52.148;11.568;2023-02-22T10:26:36;15.90;;;7.95;;
6249;SDS011;3158;52.148;11.568;2023-02-22T10:31:41;12.73;;;6.75;;
6249;SDS011;3158;52.148;11.568;2023-02-22T10:36:44;15.23;;;7.05;;
6249;SDS011;3158;52.148;11.568;2023-02-22T10:41:48;13.10;;;6.35;;
6249;SDS011;3158;52.148;11.568;2023-02-22T10:46:51;17.33;;;6.72;;
6249;SDS011;3158;52.148;11.568;2023-02-22T10:51:56;15.40;;;6.43;;
6249;SDS011;3158;52.148;11.568;2023-02-22T10:56:59;10.48;;;6.22;;
6249;SDS011;3158;52.148;11.568;2023-02-22T11:02:07;10.38;;;5.85;;
6249;SDS011;3158;52.148;11.568;2023-02-22T11:07:18;8.50;;;4.72;;
6249;SDS011;3158;52.148;11.568;2023-02-22T11:12:21;12.40;;;6.13;;
6249;SDS011;3158;52.148;11.568;2023-02-22T11:17:30;12.07;;;5.65;;
6249;SDS011;3158;52.148;11.568;2023-02-22T11:22:36;8.98;;;5.25;;
6249;SDS011;3158;52.148;11.568;2023-02-22T11:27:40;7.40;;;3.95;;
6249;SDS011;3158;52.148;11.568;2023-02-22T11:32:43;8.13;;;5.07;;
6249;SDS011;3158;52.148;11.568;2023-02-22T11:37:45;7.25;;;4.40;;
6249;SDS011;3158;52.148;11.568;2023-02-22T11:42:48;5.75;;;4.70;;
6249;SDS011;3158;52.148;11.568;2023-02-22T12:15:32;11.45;;;6.38;;
6249;SDS011;3158;52.148;11.568;2023-02-22T12:20:49;7.63;;;5.63;;
6249;SDS011;3158;52.148;11.568;2023-02-22T12:25:56;9.27;;;6.25;;
6249;SDS011;3158;52.148;11.568;2023-02-22T12:36:15;9.50;;;5.28;;
6249;SDS011;3158;52.148;11.568;2023-02-22T12:41:24;5.10;;;4.57;;
6249;SDS011;3158;52.148;11.568;2023-02-22T12:46:29;9.88;;;5.13;;
6249;SDS011;3158;52.148;11.568;2023-02-22T12:51:33;7.93;;;4.60;;
6249;SDS011;3158;52.148;11.568;2023-02-22T12:56:42;8.88;;;6.00;;
6249;SDS011;3158;52.148;11.568;2023-02-22T13:01:47;10.05;;;5.25;;
6249;SDS011;3158;52.148;11.568;2023-02-22T13:12:40;5.45;;;4.90;;
6249;SDS011;3158;52.148;11.568;2023-02-22T13:18:04;9.10;;;5.38;;
6249;SDS011;3158;52.148;11.568;2023-02-22T13:23:14;12.45;;;5.28;;
6249;SDS011;3158;52.148;11.568;2023-02-22T13:28:23;8.63;;;5.40;;
6249;SDS011;3158;52.148;11.568;2023-02-22T13:49:27;8.43;;;5.53;;
6249;SDS011;3158;52.148;11.568;2023-02-22T13:54:39;8.00;;;5.18;;
6249;SDS011;3158;52.148;11.568;2023-02-22T13:59:43;10.23;;;5.63;;
6249;SDS011;3158;52.148;11.568;2023-02-22T14:04:46;8.55;;;5.60;;
6249;SDS011;3158;52.148;11.568;2023-02-22T14:09:49;9.65;;;5.68;;
6249;SDS011;3158;52.148;11.568;2023-02-22T14:15:07;11.95;;;5.90;;
6249;SDS011;3158;52.148;11.568;2023-02-22T14:20:21;8.07;;;5.18;;
6249;SDS011;3158;52.148;11.568;2023-02-22T14:25:33;8.63;;;5.40;;
6249;SDS011;3158;52.148;11.568;2023-02-22T14:30:36;10.93;;;5.68;;
6249;SDS011;3158;52.148;11.568;2023-02-22T14:35:38;9.02;;;5.78;;
6249;SDS011;3158;52.148;11.568;2023-02-22T14:40:40;8.70;;;5.43;;
6249;SDS011;3158;52.148;11.568;2023-02-22T14:45:44;7.95;;;4.82;;
6249;SDS011;3158;52.148;11.568;2023-02-22T14:50:50;9.80;;;5.50;;
6249;SDS011;3158;52.148;11.568;2023-02-22T14:55:55;10.65;;;5.63;;
6249;SDS011;3158;52.148;11.568;2023-02-22T15:00:56;8.18;;;5.97;;
6249;SDS011;3158;52.148;11.568;2023-02-22T15:11:19;12.52;;;6.30;;
6249;SDS011;3158;52.148;11.568;2023-02-22T15:16:21;11.30;;;6.70;;
6249;SDS011;3158;52.148;11.568;2023-02-22T15:21:24;15.23;;;7.47;;
6249;SDS011;3158;52.148;11.568;2023-02-22T15:31:34;13.55;;;6.07;;
6249;SDS011;3158;52.148;11.568;2023-02-22T15:36:35;13.63;;;7.72;;
6249;SDS011;3158;52.148;11.568;2023-02-22T15:41:36;15.32;;;8.18;;
6249;SDS011;3158;52.148;11.568;2023-02-22T15:46:38;13.55;;;6.85;;
6249;SDS011;3158;52.148;11.568;2023-02-22T15:51:39;11.80;;;7.63;;
6249;SDS011;3158;52.148;11.568;2023-02-22T15:56:49;21.10;;;8.88;;
6249;SDS011;3158;52.148;11.568;2023-02-22T16:01:54;14.07;;;7.70;;
6249;SDS011;3158;52.148;11.568;2023-02-22T16:07:03;21.35;;;8.10;;
6249;SDS011;3158;52.148;11.568;2023-02-22T16:12:08;13.65;;;8.00;;
6249;SDS011;3158;52.148;11.568;2023-02-22T16:22:30;10.63;;;6.82;;
6249;SDS011;3158;52.148;11.568;2023-02-22T16:27:32;12.45;;;7.05;;
6249;SDS011;3158;52.148;11.568;2023-02-22T16:32:47;15.30;;;8.10;;
6249;SDS011;3158;52.148;11.568;2023-02-22T16:37:49;10.35;;;6.10;;
6249;SDS011;3158;52.148;11.568;2023-02-22T16:42:50;13.20;;;7.07;;
6249;SDS011;3158;52.148;11.568;2023-02-22T16:47:52;13.70;;;7.63;;
6249;SDS011;3158;52.148;11.568;2023-02-22T16:52:53;13.88;;;6.30;;
6249;SDS011;3158;52.148;11.568;2023-02-22T16:57:57;11.50;;;5.90;;
6249;SDS011;3158;52.148;11.568;2023-02-22T17:03:01;13.85;;;7.78;;
6249;SDS011;3158;52.148;11.568;2023-02-22T17:08:03;12.48;;;7.10;;
6249;SDS011;3158;52.148;11.568;2023-02-22T17:13:05;12.00;;;7.00;;
6249;SDS011;3158;52.148;11.568;2023-02-22T17:18:13;18.73;;;8.65;;
6249;SDS011;3158;52.148;11.568;2023-02-22T17:23:15;13.73;;;6.75;;
6249;SDS011;3158;52.148;11.568;2023-02-22T17:28:17;11.20;;;6.85;;
6249;SDS011;3158;52.148;11.568;2023-02-22T17:33:19;18.42;;;7.15;;
6249;SDS011;3158;52.148;11.568;2023-02-22T17:38:21;12.65;;;7.20;;
6249;SDS011;3158;52.148;11.568;2023-02-22T17:43:22;19.92;;;8.63;;
6249;SDS011;3158;52.148;11.568;2023-02-22T17:48:24;14.23;;;7.60;;
6249;SDS011;3158;52.148;11.568;2023-02-22T17:53:25;12.35;;;7.25;;
6249;SDS011;3158;52.148;11.568;2023-02-22T17:58:26;12.93;;;7.80;;
6249;SDS011;3158;52.148;11.568;2023-02-22T18:03:29;12.55;;;6.78;;
6249;SDS011;3158;52.148;11.568;2023-02-22T18:08:31;15.15;;;7.95;;
6249;SDS011;3158;52.148;11.568;2023-02-22T18:13:32;17.20;;;7.82;;
6249;SDS011;3158;52.148;11.568;2023-02-22T18:18:34;10.32;;;6.43;;
6249;SDS011;3158;52.148;11.568;2023-02-22T18:23:35;15.60;;;7.47;;
6249;SDS011;3158;52.148;11.568;2023-02-22T18:28:37;14.35;;;7.15;;
6249;SDS011;3158;52.148;11.568;2023-02-22T18:33:39;13.02;;;7.45;;
6249;SDS011;3158;52.148;11.568;2023-02-22T18:38:42;13.32;;;6.60;;
6249;SDS011;3158;52.148;11.568;2023-02-22T18:43:44;14.60;;;7.43;;
6249;SDS011;3158;52.148;11.568;2023-02-22T18:48:53;13.95;;;6.13;;
6249;SDS011;3158;52.148;11.568;2023-02-22T18:53:56;11.68;;;7.43;;
6249;SDS011;3158;52.148;11.568;2023-02-22T18:59:01;11.40;;;6.47;;
6249;SDS011;3158;52.148;11.568;2023-02-22T19:04:03;16.25;;;7.03;;
6249;SDS011;3158;52.148;11.568;2023-02-22T19:09:04;9.55;;;6.53;;
6249;SDS011;3158;52.148;11.568;2023-02-22T19:14:08;11.85;;;6.22;;
6249;SDS011;3158;52.148;11.568;2023-02-22T19:19:10;14.32;;;6.78;;
6249;SDS011;3158;52.148;11.568;2023-02-22T19:24:11;15.07;;;7.65;;
6249;SDS011;3158;52.148;11.568;2023-02-22T19:29:12;8.43;;;6.00;;
6249;SDS011;3158;52.148;11.568;2023-02-22T19:34:13;14.02;;;5.75;;
6249;SDS011;3158;52.148;11.568;2023-02-22T19:39:18;10.23;;;6.75;;
6249;SDS011;3158;52.148;11.568;2023-02-22T19:44:20;8.73;;;6.28;;
6249;SDS011;3158;52.148;11.568;2023-02-22T19:49:22;10.32;;;5.43;;
6249;SDS011;3158;52.148;11.568;2023-02-22T19:54:23;14.82;;;5.68;;
6249;SDS011;3158;52.148;11.568;2023-02-22T19:59:24;8.90;;;4.88;;
6249;SDS011;3158;52.148;11.568;2023-02-22T20:04:26;8.05;;;4.80;;
6249;SDS011;3158;52.148;11.568;2023-02-22T20:09:29;8.75;;;4.95;;
6249;SDS011;3158;52.148;11.568;2023-02-22T20:14:38;8.32;;;4.15;;
6249;SDS011;3158;52.148;11.568;2023-02-22T20:19:39;4.95;;;4.43;;
6249;SDS011;3158;52.148;11.568;2023-02-22T20:24:43;9.65;;;4.78;;
6249;SDS011;3158;52.148;11.568;2023-02-22T20:29:46;11.95;;;4.22;;
6249;SDS011;3158;52.148;11.568;2023-02-22T20:34:47;6.50;;;3.83;;
6249;SDS011;3158;52.148;11.568;2023-02-22T20:39:51;7.78;;;3.78;;
6249;SDS011;3158;52.148;11.568;2023-02-22T20:44:52;6.65;;;3.28;;
6249;SDS011;3158;52.148;11.568;2023-02-22T20:49:53;5.32;;;2.88;;
6249;SDS011;3158;52.148;11.568;2023-02-22T20:54:55;4.70;;;3.55;;
6249;SDS011;3158;52.148;11.568;2023-02-22T20:59:56;5.72;;;3.72;;
6249;SDS011;3158;52.148;11.568;2023-02-22T21:04:58;8.52;;;3.53;;
6249;SDS011;3158;52.148;11.568;2023-02-22T21:09:59;9.50;;;3.75;;
6249;SDS011;3158;52.148;11.568;2023-02-22T21:15:00;4.47;;;3.03;;
6249;SDS011;3158;52.148;11.568;2023-02-22T21:20:01;3.80;;;3.03;;
6249;SDS011;3158;52.148;11.568;2023-02-22T21:25:08;16.42;;;9.70;;
6249;SDS011;3158;52.148;11.568;2023-02-22T21:30:09;23.55;;;14.65;;
6249;SDS011;3158;52.148;11.568;2023-02-22T21:35:11;18.30;;;10.75;;
6249;SDS011;3158;52.148;11.568;2023-02-22T21:40:12;13.25;;;7.85;;
6249;SDS011;3158;52.148;11.568;2023-02-22T21:45:18;10.25;;;5.28;;
6249;SDS011;3158;52.148;11.568;2023-02-22T21:50:20;5.05;;;4.55;;
6249;SDS011;3158;52.148;11.568;2023-02-22T21:55:24;3.67;;;3.30;;
6249;SDS011;3158;52.148;11.568;2023-02-22T22:00:25;9.10;;;3.10;;
6249;SDS011;3158;52.148;11.568;2023-02-22T22:05:37;3.72;;;2.78;;
6249;SDS011;3158;52.148;11.568;2023-02-22T22:10:39;3.70;;;2.95;;
6249;SDS011;3158;52.148;11.568;2023-02-22T22:15:40;5.15;;;2.67;;
6249;SDS011;3158;52.148;11.568;2023-02-22T22:20:42;7.13;;;2.38;;
6249;SDS011;3158;52.148;11.568;2023-02-22T22:25:44;3.63;;;2.70;;
6249;SDS011;3158;52.148;11.568;2023-02-22T22:30:45;4.60;;;2.58;;
6249;SDS011;3158;52.148;11.568;2023-02-22T22:35:47;5.00;;;2.38;;
6249;SDS011;3158;52.148;11.568;2023-02-22T22:40:48;6.38;;;3.20;;
6249;SDS011;3158;52.148;11.568;2023-02-22T22:45:51;4.38;;;2.28;;
6249;SDS011;3158;52.148;11.568;2023-02-22T22:50:59;3.33;;;2.30;;
6249;SDS011;3158;52.148;11.568;2023-02-22T22:56:02;5.38;;;2.80;;
6249;SDS011;3158;52.148;11.568;2023-02-22T23:01:04;4.80;;;2.58;;
6249;SDS011;3158;52.148;11.568;2023-02-22T23:06:06;6.20;;;3.58;;
6249;SDS011;3158;52.148;11.568;2023-02-22T23:11:10;8.20;;;2.85;;
6249;SDS011;3158;52.148;11.568;2023-02-22T23:16:11;6.97;;;2.38;;
6249;SDS011;3158;52.148;11.568;2023-02-22T23:21:12;2.22;;;2.05;;
6249;SDS011;3158;52.148;11.568;2023-02-22T23:26:14;3.03;;;2.78;;
6249;SDS011;3158;52.148;11.568;2023-02-22T23:31:17;4.63;;;2.90;;
6249;SDS011;3158;52.148;11.568;2023-02-22T23:36:18;6.22;;;2.75;;
6249;SDS011;3158;52.148;11.568;2023-02-22T23:41:19;2.95;;;2.60;;
6249;SDS011;3158;52.148;11.568;2023-02-22T23:46:24;4.63;;;3.50;;
6249;SDS011;3158;52.148;11.568;2023-02-22T23:51:26;5.55;;;3.08;;
6249;SDS011;3158;52.148;11.568;2023-02-22T23:56:28;7.93;;;3.22;;
